createdAt,value
2022-11-17T00:01:20.481Z,9.56
2022-11-17T00:03:48.482Z,9.53
2022-11-17T00:06:15.580Z,9.53
2022-11-17T00:08:42.444Z,9.53
2022-11-17T00:11:08.904Z,9.55
2022-11-17T00:13:54.609Z,9.54
2022-11-17T00:16:21.908Z,9.55
2022-11-17T00:19:07.333Z,9.55
2022-11-17T00:21:34.518Z,9.55
2022-11-17T00:24:01.079Z,9.54
2022-11-17T00:26:29.960Z,9.57
2022-11-17T00:28:58.969Z,9.57
2022-11-17T00:31:45.309Z,9.58
2022-11-17T00:34:17.719Z,9.61
2022-11-17T00:36:46.484Z,9.60
2022-11-17T00:39:16.424Z,9.64
2022-11-17T00:41:43.353Z,9.64
2022-11-17T00:44:10.710Z,9.64
2022-11-17T00:46:38.315Z,9.61
2022-11-17T00:49:06.208Z,9.65
2022-11-17T00:51:33.082Z,9.63
2022-11-17T00:54:00.210Z,9.62
2022-11-17T00:56:27.254Z,9.63
2022-11-17T00:58:54.092Z,9.65
2022-11-17T01:01:21.279Z,9.67
2022-11-17T01:03:48.412Z,9.67
2022-11-17T01:06:20.222Z,9.66
2022-11-17T01:08:47.176Z,9.67
2022-11-17T01:11:18.464Z,9.67
2022-11-17T01:13:46.923Z,9.70
2022-11-17T01:16:16.867Z,9.71
2022-11-17T01:18:45.068Z,9.70
2022-11-17T01:21:17.803Z,9.71
2022-11-17T01:23:47.478Z,9.71
2022-11-17T01:26:16.384Z,9.74
2022-11-17T01:28:43.602Z,9.76
2022-11-17T01:31:15.554Z,9.75
2022-11-17T01:33:42.868Z,9.76
2022-11-17T01:36:17.758Z,9.79
2022-11-17T01:38:44.943Z,9.76
2022-11-17T01:41:20.456Z,9.78
2022-11-17T01:43:49.828Z,9.80
2022-11-17T01:46:38.214Z,9.85
2022-11-17T01:49:25.213Z,9.89
2022-11-17T01:51:57.212Z,9.90
2022-11-17T01:54:28.161Z,9.91
2022-11-17T01:57:01.142Z,9.91
2022-11-17T01:59:33.247Z,9.96
2022-11-17T02:01:59.741Z,9.99
2022-11-17T02:04:34.780Z,9.99
2022-11-17T02:07:08.839Z,10.00
2022-11-17T02:09:38.927Z,10.04
2022-11-17T02:12:08.555Z,10.08
2022-11-17T02:14:35.846Z,10.08
2022-11-17T02:17:11.481Z,10.06
2022-11-17T02:19:41.987Z,10.06
2022-11-17T02:22:23.762Z,10.05
2022-11-17T02:25:16.899Z,10.07
2022-11-17T02:28:01.853Z,10.07
2022-11-17T02:30:49.383Z,10.06
2022-11-17T02:33:26.025Z,10.08
2022-11-17T02:36:02.017Z,10.10
2022-11-17T02:38:34.966Z,10.10
2022-11-17T02:41:04.399Z,10.12
2022-11-17T02:44:00.428Z,10.12
2022-11-17T02:46:31.366Z,10.13
2022-11-17T02:49:03.774Z,10.12
2022-11-17T02:51:32.043Z,10.15
2022-11-17T02:54:00.092Z,10.15
2022-11-17T02:56:26.557Z,10.15
2022-11-17T02:58:59.596Z,10.13
2022-11-17T03:01:41.202Z,10.16
2022-11-17T03:04:16.631Z,10.17
2022-11-17T03:06:56.431Z,10.18
2022-11-17T03:09:40.397Z,10.18
2022-11-17T03:12:16.357Z,10.16
2022-11-17T03:15:09.193Z,10.19
2022-11-17T03:17:48.700Z,10.22
2022-11-17T03:20:34.840Z,10.23
2022-11-17T03:23:21.818Z,10.22
2022-11-17T03:25:54.872Z,10.22
2022-11-17T03:28:27.669Z,10.23
2022-11-17T03:30:55.962Z,10.24
2022-11-17T03:33:24.800Z,10.23
2022-11-17T03:35:59.146Z,10.23
2022-11-17T03:38:29.997Z,10.24
2022-11-17T03:41:00.436Z,10.22
2022-11-17T03:43:29.311Z,10.23
2022-11-17T03:46:02.677Z,10.24
2022-11-17T03:48:33.001Z,10.23
2022-11-17T03:51:09.422Z,10.24
2022-11-17T03:53:36.862Z,10.27
2022-11-17T03:56:24.949Z,10.29
2022-11-17T03:59:05.199Z,10.29
2022-11-17T04:01:33.744Z,10.34
2022-11-17T04:04:00.612Z,10.36
2022-11-17T04:06:27.053Z,10.37
2022-11-17T04:08:53.442Z,10.37
2022-11-17T04:11:38.459Z,10.42
2022-11-17T04:14:23.305Z,10.41
2022-11-17T04:16:49.728Z,10.40
2022-11-17T04:19:16.234Z,10.40
2022-11-17T04:21:42.625Z,10.40
2022-11-17T04:24:09.256Z,10.40
2022-11-17T04:26:54.014Z,10.41
2022-11-17T04:29:20.497Z,10.40
2022-11-17T04:31:46.926Z,10.39
2022-11-17T04:34:13.465Z,10.40
2022-11-17T04:36:44.468Z,10.36
2022-11-17T04:39:15.423Z,10.33
2022-11-17T04:41:57.121Z,10.31
2022-11-17T04:44:28.802Z,10.34
2022-11-17T04:46:56.105Z,10.29
2022-11-17T04:49:24.343Z,10.29
2022-11-17T04:51:52.279Z,10.30
2022-11-17T04:54:21.391Z,10.31
2022-11-17T04:56:48.296Z,10.31
2022-11-17T04:59:14.895Z,10.35
2022-11-17T05:01:41.584Z,10.31
2022-11-17T05:04:10.707Z,10.34
2022-11-17T05:06:45.027Z,10.36
2022-11-17T05:09:14.436Z,10.35
2022-11-17T05:11:59.972Z,10.35
2022-11-17T05:14:27.685Z,10.39
2022-11-17T05:17:09.929Z,10.40
2022-11-17T05:19:48.212Z,10.38
2022-11-17T05:22:40.323Z,10.41
2022-11-17T05:25:07.293Z,10.42
2022-11-17T05:27:34.028Z,10.41
2022-11-17T05:30:01.478Z,10.40
2022-11-17T05:32:27.928Z,10.41
2022-11-17T05:34:54.367Z,10.40
2022-11-17T05:37:20.812Z,10.41
2022-11-17T05:39:47.266Z,10.39
2022-11-17T05:42:13.713Z,10.37
2022-11-17T05:44:40.210Z,10.31
2022-11-17T05:47:06.833Z,10.28
2022-11-17T05:49:33.332Z,10.29
2022-11-17T05:51:59.907Z,10.25
2022-11-17T05:54:26.998Z,10.26
2022-11-17T05:57:00.388Z,10.24
2022-11-17T05:59:35.714Z,10.25
2022-11-17T06:02:18.815Z,10.22
2022-11-17T06:04:46.374Z,10.19
2022-11-17T06:07:12.898Z,10.21
2022-11-17T06:09:42.140Z,10.18
2022-11-17T06:12:09.209Z,10.20
2022-11-17T06:14:37.562Z,10.20
2022-11-17T06:17:10.477Z,10.19
2022-11-17T06:19:44.274Z,10.21
2022-11-17T06:22:12.708Z,10.22
2022-11-17T06:24:41.946Z,10.25
2022-11-17T06:27:09.597Z,10.25
2022-11-17T06:29:39.461Z,10.29
2022-11-17T06:32:09.482Z,10.30
2022-11-17T06:34:36.144Z,10.35
2022-11-17T06:37:02.569Z,10.39
2022-11-17T06:39:28.970Z,10.40
2022-11-17T06:41:55.414Z,10.41
2022-11-17T06:44:21.877Z,10.42
2022-11-17T06:46:49.324Z,10.39
2022-11-17T06:49:16.194Z,10.37
2022-11-17T06:51:45.406Z,10.40
2022-11-17T06:54:14.438Z,10.39
2022-11-17T06:56:41.069Z,10.38
2022-11-17T06:59:07.569Z,10.40
2022-11-17T07:01:34.110Z,10.37
2022-11-17T07:04:00.632Z,10.41
2022-11-17T07:06:27.139Z,10.39
2022-11-17T07:08:54.027Z,10.40
2022-11-17T07:11:20.518Z,10.40
2022-11-17T07:13:47.005Z,10.39
2022-11-17T07:16:21.719Z,10.38
2022-11-17T07:18:50.119Z,10.37
2022-11-17T07:21:17.974Z,10.36
2022-11-17T07:23:45.715Z,10.34
2022-11-17T07:26:12.303Z,10.34
2022-11-17T07:28:39.021Z,10.36
2022-11-17T07:31:07.799Z,10.36
2022-11-17T07:33:35.052Z,10.38
2022-11-17T07:36:06.709Z,10.37
2022-11-17T07:38:35.609Z,10.37
2022-11-17T07:41:03.055Z,10.36
2022-11-17T07:43:30.208Z,10.36
2022-11-17T07:45:57.072Z,10.35
2022-11-17T07:48:24.257Z,10.35
2022-11-17T07:50:50.909Z,10.35
2022-11-17T07:53:17.386Z,10.36
2022-11-17T07:55:43.909Z,10.36
2022-11-17T07:58:10.380Z,10.34
2022-11-17T08:00:36.973Z,10.34
2022-11-17T08:03:05.027Z,10.28
2022-11-17T08:05:39.932Z,10.23
2022-11-17T08:08:09.723Z,10.19
2022-11-17T08:10:36.379Z,10.19
2022-11-17T08:13:02.850Z,10.13
2022-11-17T08:15:30.358Z,10.13
2022-11-17T08:17:58.889Z,10.13
2022-11-17T08:20:26.757Z,10.09
2022-11-17T08:22:53.627Z,10.06
2022-11-17T08:25:22.111Z,10.04
2022-11-17T08:27:51.995Z,10.05
2022-11-17T08:30:20.389Z,10.05
2022-11-17T08:32:49.494Z,10.07
2022-11-17T08:35:17.116Z,10.06
2022-11-17T08:37:43.675Z,10.07
2022-11-17T08:40:11.861Z,10.06
2022-11-17T08:42:38.736Z,10.05
2022-11-17T08:45:07.010Z,10.04
2022-11-17T08:47:34.340Z,10.01
2022-11-17T08:50:00.847Z,10.00
2022-11-17T08:52:28.440Z,9.98
2022-11-17T08:54:55.274Z,9.99
2022-11-17T08:57:22.191Z,9.98
2022-11-17T08:59:49.544Z,9.98
2022-11-17T09:02:16.871Z,9.95
2022-11-17T09:04:45.568Z,9.94
2022-11-17T09:07:12.127Z,9.94
2022-11-17T09:09:38.675Z,9.97
2022-11-17T09:12:05.411Z,10.02
2022-11-17T09:14:31.878Z,10.09
2022-11-17T09:16:58.374Z,10.11
2022-11-17T09:19:24.939Z,10.10
2022-11-17T09:21:51.446Z,10.10
2022-11-17T09:24:17.964Z,10.12
2022-11-17T09:26:44.636Z,10.12
2022-11-17T09:29:11.196Z,10.13
2022-11-17T09:31:38.011Z,10.15
2022-11-17T09:34:06.255Z,10.15
2022-11-17T09:36:33.836Z,10.13
2022-11-17T09:39:01.005Z,10.13
2022-11-17T09:41:38.553Z,10.14
2022-11-17T09:44:23.521Z,10.15
2022-11-17T09:46:49.974Z,10.16
2022-11-17T09:49:30.893Z,10.18
2022-11-17T09:52:03.290Z,10.17
2022-11-17T09:54:47.358Z,10.13
2022-11-17T09:57:37.926Z,10.17
2022-11-17T10:00:23.253Z,10.20
2022-11-17T10:02:51.483Z,10.18
2022-11-17T10:05:35.212Z,10.15
2022-11-17T10:08:11.259Z,10.13
2022-11-17T10:10:47.721Z,10.14
2022-11-17T10:13:25.171Z,10.13
2022-11-17T10:15:57.479Z,10.08
2022-11-17T10:18:24.037Z,10.06
2022-11-17T10:20:51.244Z,10.07
2022-11-17T10:23:19.727Z,10.05
2022-11-17T10:25:48.435Z,10.07
2022-11-17T10:28:32.758Z,10.11
2022-11-17T10:31:02.503Z,10.14
2022-11-17T10:33:50.236Z,10.13
2022-11-17T10:36:32.925Z,10.11
2022-11-17T10:39:01.073Z,10.10
2022-11-17T10:41:38.139Z,10.04
2022-11-17T10:44:07.256Z,10.03
2022-11-17T10:46:44.955Z,10.02
2022-11-17T10:49:25.085Z,9.99
2022-11-17T10:52:06.123Z,9.99
2022-11-17T10:54:32.666Z,9.99
2022-11-17T10:57:00.467Z,10.01
2022-11-17T10:59:32.416Z,10.04
2022-11-17T11:02:30.646Z,10.09
2022-11-17T11:05:14.756Z,10.13
2022-11-17T11:07:41.352Z,10.17
2022-11-17T11:10:16.722Z,10.19
2022-11-17T11:13:21.717Z,10.22
2022-11-17T11:15:48.254Z,10.22
2022-11-17T11:18:20.264Z,10.24
2022-11-17T11:21:09.252Z,10.20
2022-11-17T11:23:39.771Z,10.20
2022-11-17T11:26:15.286Z,10.25
2022-11-17T11:28:51.381Z,10.26
2022-11-17T11:32:16.546Z,10.22
2022-11-17T11:35:17.205Z,10.17
2022-11-17T11:38:16.139Z,10.18
2022-11-17T11:40:45.958Z,10.19
2022-11-17T11:43:44.468Z,10.17
2022-11-17T11:46:33.477Z,10.16
2022-11-17T11:49:13.151Z,10.14
2022-11-17T11:51:39.876Z,10.15
2022-11-17T11:54:20.150Z,10.13
2022-11-17T11:56:48.097Z,10.08
2022-11-17T11:59:48.445Z,10.11
2022-11-17T12:02:39.591Z,10.10
2022-11-17T12:05:26.104Z,10.07
2022-11-17T12:08:15.569Z,10.06
2022-11-17T12:10:48.069Z,10.07
2022-11-17T12:13:20.972Z,10.05
2022-11-17T12:15:47.848Z,10.06
2022-11-17T12:18:17.346Z,10.05
2022-11-17T12:20:46.784Z,10.05
2022-11-17T12:23:35.001Z,10.04
2022-11-17T12:26:02.765Z,10.05
2022-11-17T12:28:39.147Z,9.97
2022-11-17T12:31:10.579Z,10.00
2022-11-17T12:33:52.149Z,10.00
2022-11-17T12:36:30.045Z,10.01
2022-11-17T12:38:58.663Z,10.04
2022-11-17T12:41:47.066Z,10.04
2022-11-17T12:44:32.119Z,10.03
2022-11-17T12:47:15.129Z,10.02
2022-11-17T12:50:03.483Z,10.01
2022-11-17T12:53:08.926Z,10.02
2022-11-17T12:55:35.386Z,10.02
2022-11-17T12:58:36.028Z,10.03
2022-11-17T13:01:20.771Z,10.04
2022-11-17T13:04:06.495Z,10.05
2022-11-17T13:06:35.861Z,10.04
2022-11-17T13:09:11.279Z,10.03
2022-11-17T13:11:37.931Z,10.04
2022-11-17T13:14:09.718Z,10.07
2022-11-17T13:16:42.399Z,10.06
2022-11-17T13:19:37.594Z,10.09
2022-11-17T13:22:16.078Z,10.10
2022-11-17T13:24:50.107Z,10.11
2022-11-17T13:27:30.740Z,10.08
2022-11-17T13:30:21.514Z,10.09
2022-11-17T13:32:48.670Z,10.06
2022-11-17T13:35:23.981Z,10.06
2022-11-17T13:38:12.086Z,10.04
2022-11-17T13:40:41.587Z,10.01
2022-11-17T13:43:14.159Z,9.99
2022-11-17T13:45:43.210Z,9.98
2022-11-17T13:48:34.123Z,10.00
2022-11-17T13:51:25.580Z,9.98
2022-11-17T13:54:02.973Z,9.97
2022-11-17T13:56:39.283Z,9.95
2022-11-17T13:59:31.026Z,9.96
2022-11-17T14:02:16.169Z,9.95
2022-11-17T14:05:16.825Z,9.95
2022-11-17T14:07:44.034Z,9.93
2022-11-17T14:10:20.702Z,9.92
2022-11-17T14:12:52.609Z,9.93
2022-11-17T14:15:26.359Z,9.95
2022-11-17T14:17:58.412Z,9.97
2022-11-17T14:20:24.871Z,10.00
2022-11-17T14:23:10.080Z,10.02
2022-11-17T14:25:39.888Z,10.04
2022-11-17T14:28:16.585Z,10.07
2022-11-17T14:30:43.406Z,10.06
2022-11-17T14:33:13.636Z,10.07
2022-11-17T14:35:40.702Z,10.09
2022-11-17T14:38:10.038Z,10.09
2022-11-17T14:40:36.542Z,10.13
2022-11-17T14:43:03.024Z,10.13
2022-11-17T14:45:29.849Z,10.13
2022-11-17T14:47:56.342Z,10.14
2022-11-17T14:50:23.059Z,10.17
2022-11-17T14:52:49.509Z,10.19
2022-11-17T14:55:15.938Z,10.18
2022-11-17T14:57:42.869Z,10.19
2022-11-17T15:00:13.434Z,10.20
2022-11-17T15:02:42.814Z,10.22
2022-11-17T15:05:10.803Z,10.20
2022-11-17T15:07:37.757Z,10.20
2022-11-17T15:10:06.369Z,10.21
2022-11-17T15:12:32.862Z,10.24
2022-11-17T15:14:59.405Z,10.22
2022-11-17T15:17:27.097Z,10.23
2022-11-17T15:19:54.498Z,10.25
2022-11-17T15:22:21.355Z,10.22
2022-11-17T15:24:47.903Z,10.23
2022-11-17T15:27:14.939Z,10.22
2022-11-17T15:29:41.464Z,10.18
2022-11-17T15:32:07.984Z,10.17
2022-11-17T15:34:37.238Z,10.18
2022-11-17T15:37:03.755Z,10.18
2022-11-17T15:39:30.702Z,10.17
2022-11-17T15:41:57.238Z,10.18
2022-11-17T15:44:24.463Z,10.17
2022-11-17T15:46:50.948Z,10.20
2022-11-17T15:49:17.901Z,10.18
2022-11-17T15:51:44.703Z,10.16
2022-11-17T15:54:16.663Z,10.17
2022-11-17T15:56:46.735Z,10.15
2022-11-17T15:59:14.072Z,10.17
2022-11-17T16:01:41.294Z,10.14
2022-11-17T16:04:10.335Z,10.14
2022-11-17T16:06:38.694Z,10.17
2022-11-17T16:09:06.554Z,10.15
2022-11-17T16:11:33.601Z,10.16
2022-11-17T16:14:00.435Z,10.16
2022-11-17T16:16:30.263Z,10.14
2022-11-17T16:18:57.234Z,10.14
2022-11-17T16:21:24.128Z,10.13
2022-11-17T16:23:56.039Z,10.10
2022-11-17T16:26:26.394Z,10.10
2022-11-17T16:29:00.612Z,10.11
2022-11-17T16:31:30.005Z,10.08
2022-11-17T16:34:05.080Z,10.06
2022-11-17T16:36:36.891Z,10.05
2022-11-17T16:39:08.837Z,10.05
2022-11-17T16:41:38.047Z,10.06
2022-11-17T16:44:12.905Z,10.03
2022-11-17T16:46:43.471Z,10.02
2022-11-17T16:49:12.445Z,10.00
2022-11-17T16:51:39.527Z,9.99
2022-11-17T16:54:10.516Z,10.00
2022-11-17T16:56:37.192Z,9.99
2022-11-17T16:59:04.047Z,9.98
2022-11-17T17:01:34.613Z,9.98
2022-11-17T17:04:04.010Z,9.98
2022-11-17T17:06:31.389Z,10.00
2022-11-17T17:09:04.463Z,9.99
2022-11-17T17:11:33.082Z,9.99
2022-11-17T17:14:01.258Z,10.02
2022-11-17T17:16:27.832Z,10.01
2022-11-17T17:18:59.653Z,10.01
2022-11-17T17:21:27.074Z,10.04
2022-11-17T17:23:53.915Z,10.03
2022-11-17T17:26:22.479Z,10.02
2022-11-17T17:28:51.198Z,10.01
2022-11-17T17:31:21.892Z,10.03
2022-11-17T17:33:50.150Z,10.00
2022-11-17T17:36:18.847Z,10.03
2022-11-17T17:38:50.127Z,10.03
2022-11-17T17:41:20.329Z,10.04
2022-11-17T17:43:48.241Z,10.01
2022-11-17T17:46:16.629Z,10.02
2022-11-17T17:48:45.229Z,10.00
2022-11-17T17:51:16.074Z,10.02
2022-11-17T17:53:42.942Z,10.03
2022-11-17T17:56:14.194Z,10.02
2022-11-17T17:58:42.250Z,10.00
2022-11-17T18:01:19.475Z,9.97
2022-11-17T18:03:48.317Z,9.97
2022-11-17T18:06:17.147Z,9.97
2022-11-17T18:08:44.313Z,9.95
2022-11-17T18:11:13.664Z,9.93
2022-11-17T18:13:42.422Z,9.95
2022-11-17T18:16:15.362Z,9.91
2022-11-17T18:18:42.067Z,9.91
2022-11-17T18:21:11.354Z,9.89
2022-11-17T18:23:38.710Z,9.89
2022-11-17T18:26:17.232Z,9.89
2022-11-17T18:28:55.277Z,9.85
2022-11-17T18:31:24.063Z,9.87
2022-11-17T18:33:52.419Z,9.88
2022-11-17T18:36:19.054Z,9.87
2022-11-17T18:38:45.733Z,9.82
2022-11-17T18:41:15.160Z,9.83
2022-11-17T18:43:42.891Z,9.83
2022-11-17T18:46:12.830Z,9.83
2022-11-17T18:48:41.767Z,9.81
2022-11-17T18:51:25.834Z,9.83
2022-11-17T18:53:54.125Z,9.80
2022-11-17T18:56:26.963Z,9.78
2022-11-17T18:58:54.030Z,9.76
2022-11-17T19:01:25.622Z,9.68
2022-11-17T19:03:54.134Z,9.66
2022-11-17T19:06:22.735Z,9.63
2022-11-17T19:08:50.275Z,9.60
2022-11-17T19:11:18.175Z,9.57
2022-11-17T19:13:45.710Z,9.54
2022-11-17T19:16:16.451Z,9.49
2022-11-17T19:18:44.830Z,9.46
2022-11-17T19:21:13.642Z,9.42
2022-11-17T19:23:44.416Z,9.44
2022-11-17T19:26:18.417Z,9.40
2022-11-17T19:28:45.372Z,9.35
2022-11-17T19:31:17.968Z,9.33
2022-11-17T19:33:45.995Z,9.33
2022-11-17T19:36:33.475Z,9.31
2022-11-17T19:39:01.518Z,9.29
2022-11-17T19:41:32.139Z,9.26
2022-11-17T19:44:00.938Z,9.28
2022-11-17T19:46:28.775Z,9.24
2022-11-17T19:48:56.830Z,9.22
2022-11-17T19:51:25.920Z,9.22
2022-11-17T19:53:55.067Z,9.20
2022-11-17T19:56:22.404Z,9.18
2022-11-17T19:58:50.451Z,9.14
2022-11-17T20:01:28.342Z,9.14
2022-11-17T20:03:56.194Z,9.12
2022-11-17T20:06:27.298Z,9.08
2022-11-17T20:08:55.679Z,9.06
2022-11-17T20:11:24.697Z,9.05
2022-11-17T20:13:51.319Z,9.02
2022-11-17T20:16:21.271Z,9.01
2022-11-17T20:18:53.048Z,8.98
2022-11-17T20:21:19.721Z,8.97
2022-11-17T20:23:46.794Z,8.98
2022-11-17T20:26:16.203Z,8.97
2022-11-17T20:28:43.225Z,8.96
2022-11-17T20:31:12.748Z,8.94
2022-11-17T20:33:40.758Z,8.93
2022-11-17T20:36:09.639Z,8.92
2022-11-17T20:38:36.280Z,8.88
2022-11-17T20:41:04.314Z,8.90
2022-11-17T20:43:32.072Z,8.87
2022-11-17T20:45:59.031Z,8.85
2022-11-17T20:48:27.465Z,8.85
2022-11-17T20:51:01.890Z,8.85
2022-11-17T20:53:28.809Z,8.81
2022-11-17T20:55:59.522Z,8.82
2022-11-17T20:58:27.116Z,8.82
2022-11-17T21:00:54.027Z,8.80
2022-11-17T21:03:20.993Z,8.75
2022-11-17T21:05:58.665Z,8.73
2022-11-17T21:08:27.249Z,8.73
2022-11-17T21:11:01.223Z,8.70
2022-11-17T21:13:28.869Z,8.70
2022-11-17T21:16:05.853Z,8.69
2022-11-17T21:18:33.116Z,8.67
2022-11-17T21:21:00.215Z,8.66
2022-11-17T21:23:27.895Z,8.61
2022-11-17T21:25:54.417Z,8.62
2022-11-17T21:28:21.209Z,8.62
2022-11-17T21:30:47.668Z,8.60
2022-11-17T21:33:14.246Z,8.55
2022-11-17T21:35:40.714Z,8.54
2022-11-17T21:38:07.244Z,8.53
2022-11-17T21:40:33.815Z,8.51
2022-11-17T21:43:00.316Z,8.50
2022-11-17T21:45:26.784Z,8.46
2022-11-17T21:47:59.068Z,8.46
2022-11-17T21:50:26.002Z,8.44
2022-11-17T21:52:52.461Z,8.40
2022-11-17T21:55:18.946Z,8.38
2022-11-17T21:57:45.486Z,8.37
2022-11-17T22:00:12.315Z,8.32
2022-11-17T22:02:38.782Z,8.31
2022-11-17T22:05:05.715Z,8.28
2022-11-17T22:07:32.288Z,8.26
2022-11-17T22:09:58.819Z,8.25
2022-11-17T22:12:25.318Z,8.20
2022-11-17T22:14:51.821Z,8.19
2022-11-17T22:17:18.295Z,8.19
2022-11-17T22:19:44.724Z,8.20
2022-11-17T22:22:11.253Z,8.20
2022-11-17T22:24:39.864Z,8.18
2022-11-17T22:27:06.695Z,8.17
2022-11-17T22:29:33.356Z,8.17
2022-11-17T22:31:59.994Z,8.13
2022-11-17T22:34:26.614Z,8.13
2022-11-17T22:36:53.165Z,8.09
2022-11-17T22:39:19.897Z,8.06
2022-11-17T22:41:46.522Z,8.05
2022-11-17T22:44:14.610Z,8.03
2022-11-17T22:46:43.160Z,7.99
2022-11-17T22:49:10.357Z,8.01
2022-11-17T22:51:55.435Z,7.99
2022-11-17T22:54:21.878Z,7.97
2022-11-17T22:56:48.672Z,7.93
2022-11-17T22:59:15.479Z,7.93
2022-11-17T23:01:42.208Z,7.88
2022-11-17T23:04:08.846Z,7.88
2022-11-17T23:06:35.310Z,7.84
2022-11-17T23:09:01.780Z,7.82
2022-11-17T23:11:37.547Z,7.82
2022-11-17T23:14:10.889Z,7.78
2022-11-17T23:16:37.967Z,7.76
2022-11-17T23:19:04.953Z,7.74
2022-11-17T23:21:31.446Z,7.70
2022-11-17T23:23:57.874Z,7.69
2022-11-17T23:26:24.369Z,7.69
2022-11-17T23:28:50.882Z,7.66
2022-11-17T23:31:17.900Z,7.65
2022-11-17T23:33:46.486Z,7.63
2022-11-17T23:36:18.639Z,7.61
2022-11-17T23:38:45.583Z,7.59
2022-11-17T23:41:14.140Z,7.58
2022-11-17T23:43:41.208Z,7.54
2022-11-17T23:46:11.622Z,7.54
2022-11-17T23:48:38.243Z,7.52
2022-11-17T23:51:06.908Z,7.49
2022-11-17T23:53:34.115Z,7.51
2022-11-17T23:56:01.143Z,7.48
2022-11-17T23:58:28.471Z,7.50
